Time;durP1;ratioP1;P1;durP2;ratioP2;P2;SDS_P1;SDS_P2;PMS_P1;PMS_P2;Temp;Humidity;BMP_temperature;BMP_pressure;BME280_temperature;BME280_humidity;BME280_pressure;Samples;Min_cycle;Max_cycle;Signal;HPM_P1;HPM_P2
2023/09/11 00:02:16;;;;;;;;;21.67;20.33;;;;;27.25;100.00;101105.44;5066020;28;45404;-74
2023/09/11 00:04:42;;;;;;;;;26.67;23.00;;;;;27.22;100.00;101103.78;5063674;27;61740;-74
2023/09/11 00:07:07;;;;;;;;;22.67;22.00;;;;;27.19;100.00;101112.06;5074435;28;47350;-75
2023/09/11 00:09:33;;;;;;;;;19.33;19.33;;;;;27.12;100.00;101107.94;5065538;27;69531;-74
2023/09/11 00:11:58;;;;;;;;;22.00;22.00;;;;;27.08;100.00;101107.22;5072353;27;53977;-75
2023/09/11 00:14:23;;;;;;;;;18.00;16.33;;;;;27.04;100.00;101112.84;5063481;28;63477;-74
2023/09/11 00:16:48;;;;;;;;;24.33;22.33;;;;;27.02;100.00;101106.66;5063140;27;65766;-74
2023/09/11 00:19:14;;;;;;;;;23.00;21.67;;;;;26.99;100.00;101112.22;5071209;28;68038;-74
2023/09/11 00:21:39;;;;;;;;;21.33;20.00;;;;;26.96;100.00;101099.72;5071245;27;45763;-74
2023/09/11 00:24:05;;;;;;;;;22.67;20.67;;;;;26.96;100.00;101106.97;5066058;27;62175;-74
2023/09/11 00:26:31;;;;;;;;;21.00;19.00;;;;;26.95;100.00;101100.66;5058469;28;46375;-74
2023/09/11 00:28:56;;;;;;;;;21.33;20.33;;;;;26.93;100.00;101102.56;5069034;27;45365;-74
2023/09/11 00:31:21;;;;;;;;;23.00;22.00;;;;;26.90;100.00;101106.34;5074980;27;45382;-75
2023/09/11 00:33:47;;;;;;;;;22.67;21.67;;;;;26.85;100.00;101105.69;5074248;27;57109;-74
2023/09/11 00:36:12;;;;;;;;;22.00;20.33;;;;;26.81;100.00;101098.69;5073113;27;46554;-74
2023/09/11 00:38:37;;;;;;;;;25.67;22.67;;;;;26.74;100.00;101099.97;5071639;27;68364;-74
2023/09/11 00:41:03;;;;;;;;;28.67;25.33;;;;;26.73;100.00;101100.03;5070857;27;66419;-75
2023/09/11 00:43:28;;;;;;;;;23.67;23.67;;;;;26.71;100.00;101094.69;5062701;27;61743;-74
2023/09/11 00:45:55;;;;;;;;;20.33;20.33;;;;;26.72;100.00;101099.16;5075218;27;68675;-74
2023/09/11 00:48:20;;;;;;;;;20.67;20.33;;;;;26.68;100.00;101097.56;5062233;27;45450;-74
2023/09/11 00:50:46;;;;;;;;;23.00;23.00;;;;;26.69;100.00;101098.47;5071686;28;61032;-74
2023/09/11 00:53:12;;;;;;;;;23.33;23.33;;;;;26.64;100.00;101085.16;5068884;27;45656;-74
2023/09/11 00:55:38;;;;;;;;;24.00;22.33;;;;;26.64;100.00;101096.84;5064697;28;49024;-74
2023/09/11 00:58:04;;;;;;;;;22.00;21.33;;;;;26.58;100.00;101093.56;5059622;28;45454;-74
2023/09/11 01:00:29;;;;;;;;;23.00;22.33;;;;;26.57;100.00;101092.69;5061076;28;64510;-74
2023/09/11 01:02:57;;;;;;;;;24.67;23.33;;;;;26.55;100.00;101091.91;5066192;27;45628;-74
2023/09/11 01:05:24;;;;;;;;;23.67;20.00;;;;;26.52;100.00;101088.47;5058051;28;46849;-74
2023/09/11 01:07:50;;;;;;;;;22.00;20.67;;;;;26.48;100.00;101084.19;5061199;27;45497;-73
2023/09/11 01:10:15;;;;;;;;;25.67;25.00;;;;;26.48;100.00;101090.47;5063971;28;66911;-74
2023/09/11 01:12:40;;;;;;;;;22.67;22.33;;;;;26.42;100.00;101085.38;5064530;27;63385;-74
2023/09/11 01:15:08;;;;;;;;;22.33;22.00;;;;;26.37;100.00;101080.16;5069063;28;46584;-74
2023/09/11 01:17:51;;;;;;;;;26.00;21.00;;;;;26.32;100.00;101089.47;5069598;27;45456;-74
2023/09/11 01:20:35;;;;;;;;;28.33;22.00;;;;;26.30;100.00;101088.66;5067787;28;45471;-74
2023/09/11 01:23:25;;;;;;;;;22.67;21.00;;;;;26.23;100.00;101089.94;5070973;28;45476;-74
2023/09/11 01:26:02;;;;;;;;;22.67;22.67;;;;;26.22;100.00;101094.47;5087437;27;47829;-74
2023/09/11 01:28:39;;;;;;;;;24.33;23.00;;;;;26.19;100.00;101088.31;5059168;28;45413;-74
2023/09/11 01:31:05;;;;;;;;;25.33;22.67;;;;;26.15;100.00;101084.88;5066047;28;45366;-74
2023/09/11 01:33:30;;;;;;;;;24.00;22.00;;;;;26.16;100.00;101089.38;5072883;27;49991;-74
2023/09/11 01:35:55;;;;;;;;;23.67;21.67;;;;;26.15;100.00;101087.59;5075533;27;71799;-75
2023/09/11 01:38:21;;;;;;;;;25.00;23.33;;;;;26.17;100.00;101091.09;5076266;27;65731;-74
2023/09/11 01:40:48;;;;;;;;;28.33;24.67;;;;;26.20;100.00;101095.47;5070615;28;65110;-74
2023/09/11 01:43:13;;;;;;;;;22.33;22.33;;;;;26.24;100.00;101097.09;5076851;27;45643;-74
2023/09/11 01:45:41;;;;;;;;;28.33;26.00;;;;;26.20;100.00;101099.06;5053637;28;46628;-74
2023/09/11 01:48:07;;;;;;;;;23.00;22.00;;;;;26.21;100.00;101098.13;5074672;28;70523;-74
2023/09/11 01:50:35;;;;;;;;;24.33;24.00;;;;;26.21;100.00;101099.97;5076264;27;45493;-75
2023/09/11 01:53:01;;;;;;;;;28.00;25.33;;;;;26.20;100.00;101103.59;5075471;28;45458;-74
2023/09/11 01:55:27;;;;;;;;;25.67;22.67;;;;;26.15;100.00;101098.41;5074370;28;46401;-73
2023/09/11 01:57:52;;;;;;;;;27.33;24.33;;;;;26.18;100.00;101102.81;5070460;27;45271;-74
2023/09/11 02:00:18;;;;;;;;;25.67;23.67;;;;;26.16;100.00;101110.16;5070782;28;67167;-74
2023/09/11 02:02:43;;;;;;;;;24.00;21.67;;;;;26.12;100.00;101095.88;5079310;27;64093;-76
2023/09/11 02:05:09;;;;;;;;;24.33;21.33;;;;;26.09;100.00;101099.59;5079615;27;45716;-75
2023/09/11 02:07:35;;;;;;;;;32.33;24.33;;;;;26.07;100.00;101098.81;5077947;27;45440;-74
2023/09/11 02:10:01;;;;;;;;;24.00;22.00;;;;;26.04;100.00;101101.66;5079534;27;45346;-74
2023/09/11 02:12:27;;;;;;;;;25.33;23.33;;;;;26.02;100.00;101100.84;5079765;27;45400;-74
2023/09/11 02:14:52;;;;;;;;;25.67;24.67;;;;;25.98;100.00;101101.94;5078809;28;67944;-76
2023/09/11 02:17:18;;;;;;;;;29.00;23.67;;;;;25.97;100.00;101104.75;5079181;27;45307;-74
2023/09/11 02:19:43;;;;;;;;;21.67;21.33;;;;;25.90;100.00;101103.28;5077043;28;45508;-75
2023/09/11 02:22:08;;;;;;;;;24.67;22.67;;;;;25.88;100.00;101095.22;5079121;27;59948;-74
2023/09/11 02:24:34;;;;;;;;;17.67;17.67;;;;;25.86;100.00;101091.72;5078816;27;47673;-74
2023/09/11 02:26:59;;;;;;;;;21.33;18.33;;;;;25.80;100.00;101086.63;5067788;27;68373;-74
2023/09/11 02:29:25;;;;;;;;;16.67;16.67;;;;;25.79;100.00;101091.16;5062360;28;65961;-75
2023/09/11 02:31:50;;;;;;;;;17.33;17.00;;;;;25.79;100.00;101087.59;5076725;27;63907;-74
2023/09/11 02:34:15;;;;;;;;;17.00;15.00;;;;;25.78;100.00;101084.00;5070057;27;65860;-74
2023/09/11 02:36:40;;;;;;;;;14.00;14.00;;;;;25.81;100.00;101088.38;5077954;28;45268;-74
2023/09/11 02:39:06;;;;;;;;;17.00;15.00;;;;;25.78;100.00;101089.41;5071671;27;59576;-74
2023/09/11 02:41:31;;;;;;;;;15.67;15.67;;;;;25.79;100.00;101088.47;5061220;28;57990;-74
2023/09/11 02:43:56;;;;;;;;;15.33;15.33;;;;;25.79;100.00;101084.88;5075921;27;70956;-75
2023/09/11 02:46:22;;;;;;;;;21.33;15.00;;;;;25.80;100.00;101092.91;5073142;27;70218;-74
2023/09/11 02:48:47;;;;;;;;;19.33;15.33;;;;;25.78;100.00;101089.41;5077258;27;62853;-74
2023/09/11 02:51:13;;;;;;;;;18.67;17.00;;;;;25.82;100.00;101088.28;5069158;28;45134;-74
2023/09/11 02:53:39;;;;;;;;;18.00;15.00;;;;;25.81;100.00;101083.84;5077532;27;47314;-74
2023/09/11 02:56:04;;;;;;;;;15.00;15.00;;;;;25.79;100.00;101079.47;5069394;28;45260;-74
2023/09/11 02:58:30;;;;;;;;;15.00;15.00;;;;;25.75;100.00;101072.44;5071472;27;45439;-73
2023/09/11 03:01:03;;;;;;;;;16.67;15.00;;;;;25.75;100.00;101067.03;5079326;27;45390;-74
2023/09/11 03:03:29;;;;;;;;;21.00;16.00;;;;;25.74;100.00;101073.38;5077150;28;46154;-74
2023/09/11 03:06:02;;;;;;;;;16.00;14.00;;;;;25.73;100.00;101079.75;5076434;27;45250;-74
2023/09/11 03:08:28;;;;;;;;;17.67;16.33;;;;;25.72;100.00;101072.53;5071525;27;45253;-74
2023/09/11 03:10:54;;;;;;;;;17.33;16.00;;;;;25.70;100.00;101072.63;5066059;27;45303;-74
2023/09/11 03:13:19;;;;;;;;;15.33;14.00;;;;;25.69;100.00;101070.00;5077917;27;66381;-74
2023/09/11 03:15:45;;;;;;;;;22.00;18.00;;;;;25.68;100.00;101068.25;5074707;27;71024;-75
2023/09/11 03:18:10;;;;;;;;;17.00;14.00;;;;;25.64;100.00;101061.25;5077133;27;65454;-74
2023/09/11 03:20:36;;;;;;;;;16.00;16.00;;;;;25.58;100.00;101057.00;5075199;27;45666;-74
2023/09/11 03:23:01;;;;;;;;;18.67;15.00;;;;;25.55;100.00;101049.03;5077572;27;73598;-75
2023/09/11 03:25:27;;;;;;;;;20.33;17.67;;;;;25.50;100.00;101048.34;5077040;27;69233;-75
2023/09/11 03:27:52;;;;;;;;;16.67;15.00;;;;;25.45;100.00;101045.00;5075666;27;64992;-74
2023/09/11 03:30:18;;;;;;;;;19.33;16.00;;;;;25.41;100.00;101044.28;5077919;27;45462;-75
2023/09/11 03:32:43;;;;;;;;;19.67;19.67;;;;;25.39;100.00;101046.16;5076972;27;69096;-74
2023/09/11 03:35:09;;;;;;;;;17.67;15.67;;;;;25.34;100.00;101053.63;5077259;27;67514;-74
2023/09/11 03:37:35;;;;;;;;;15.67;15.00;;;;;25.33;100.00;101044.63;5072332;27;45428;-74
2023/09/11 03:40:05;;;;;;;;;17.33;17.33;;;;;25.27;100.00;101034.13;5072829;28;45335;-75
2023/09/11 03:42:30;;;;;;;;;18.33;15.33;;;;;25.24;100.00;101033.38;5078202;28;46653;-75
2023/09/11 03:44:55;;;;;;;;;17.00;17.00;;;;;25.22;100.00;101035.28;5078280;27;45613;-74
2023/09/11 03:47:21;;;;;;;;;20.67;18.00;;;;;25.19;100.00;101027.28;5059031;27;66575;-75
2023/09/11 03:49:46;;;;;;;;;17.67;14.00;;;;;25.18;100.00;101029.13;5078446;27;45563;-75
2023/09/11 03:52:12;;;;;;;;;17.33;15.00;;;;;25.15;100.00;101023.88;5077119;27;66345;-74
2023/09/11 03:54:37;;;;;;;;;15.00;13.00;;;;;25.13;100.00;101028.47;5077651;27;45494;-75
2023/09/11 03:57:03;;;;;;;;;15.67;14.00;;;;;25.09;100.00;101029.56;5077046;27;63822;-74
2023/09/11 03:59:28;;;;;;;;;18.67;14.67;;;;;25.09;100.00;101032.28;5067920;28;46699;-75
2023/09/11 04:01:53;;;;;;;;;15.00;12.33;;;;;25.06;100.00;101019.78;5058143;28;72012;-74
2023/09/11 04:04:19;;;;;;;;;15.00;15.00;;;;;25.04;100.00;101015.38;5069403;27;67908;-74
2023/09/11 04:06:45;;;;;;;;;19.33;16.00;;;;;25.03;100.00;101019.00;5073058;27;66305;-74
2023/09/11 04:09:10;;;;;;;;;15.00;13.00;;;;;25.01;100.00;101018.19;5075535;27;46249;-75
2023/09/11 04:11:36;;;;;;;;;20.33;15.67;;;;;25.03;100.00;101019.00;5077158;27;46491;-74
2023/09/11 04:14:01;;;;;;;;;16.67;13.67;;;;;25.01;100.00;101016.38;5076893;27;69212;-74
2023/09/11 04:16:26;;;;;;;;;16.00;13.67;;;;;25.01;100.00;101015.50;5076481;27;57210;-74
2023/09/11 04:18:52;;;;;;;;;14.33;14.00;;;;;24.98;100.00;101007.50;5071976;27;45484;-75
2023/09/11 04:21:17;;;;;;;;;11.00;11.00;;;;;25.01;100.00;101010.97;5075327;28;47558;-75
2023/09/11 04:23:42;;;;;;;;;14.67;11.33;;;;;25.00;100.00;101005.63;5073591;27;45426;-75
2023/09/11 04:26:08;;;;;;;;;13.00;13.00;;;;;24.98;100.00;101003.03;5071152;28;56705;-75
2023/09/11 04:28:35;;;;;;;;;14.00;12.67;;;;;24.98;100.00;101007.50;5068982;27;45482;-74
2023/09/11 04:31:01;;;;;;;;;16.00;12.33;;;;;24.98;100.00;101005.72;5077447;27;47604;-75
2023/09/11 04:33:27;;;;;;;;;11.33;11.33;;;;;24.97;100.00;101001.25;5076532;27;45358;-75
2023/09/11 04:35:53;;;;;;;;;12.67;11.00;;;;;25.00;100.00;100998.41;5077753;27;45350;-75
2023/09/11 04:38:18;;;;;;;;;13.00;12.00;;;;;24.98;100.00;101007.50;5074505;27;45311;-74
2023/09/11 04:40:43;;;;;;;;;16.00;12.67;;;;;25.00;100.00;101001.09;5074266;27;47337;-74
2023/09/11 04:43:09;;;;;;;;;15.67;12.33;;;;;24.99;100.00;101001.19;5061252;27;70604;-74
2023/09/11 04:45:34;;;;;;;;;13.00;13.00;;;;;24.95;100.00;100995.03;5065775;28;64336;-74
2023/09/11 04:47:59;;;;;;;;;19.00;16.00;;;;;24.91;100.00;100996.13;5060925;27;45871;-75
2023/09/11 04:50:25;;;;;;;;;18.33;17.33;;;;;24.88;100.00;100990.88;5069303;28;68770;-73
2023/09/11 04:52:50;;;;;;;;;19.00;18.67;;;;;24.87;100.00;101002.59;5068666;27;45533;-74
2023/09/11 04:55:15;;;;;;;;;22.00;16.00;;;;;24.81;100.00;100998.34;5069650;28;45576;-74
2023/09/11 04:57:41;;;;;;;;;19.00;18.33;;;;;24.80;100.00;101001.16;5071971;28;63827;-74
2023/09/11 05:00:10;;;;;;;;;20.33;20.33;;;;;24.79;100.00;101002.09;5069875;27;46451;-74
2023/09/11 05:02:36;;;;;;;;;20.33;20.33;;;;;24.76;100.00;101000.41;5072708;28;45431;-75
2023/09/11 05:05:05;;;;;;;;;20.67;19.00;;;;;24.75;100.00;101005.88;5068129;28;45462;-76
2023/09/11 05:07:31;;;;;;;;;22.67;22.67;;;;;24.74;100.00;100998.72;5066803;28;45682;-75
2023/09/11 05:09:56;;;;;;;;;25.33;23.33;;;;;24.73;100.00;101003.25;5064562;27;46662;-74
2023/09/11 05:12:21;;;;;;;;;26.33;24.33;;;;;24.70;100.00;101005.19;5065097;28;45432;-76
2023/09/11 05:14:47;;;;;;;;;27.67;26.33;;;;;24.67;100.00;100998.13;5069078;27;67267;-76
2023/09/11 05:17:12;;;;;;;;;26.67;22.67;;;;;24.69;100.00;101003.44;5060097;28;45679;-76
2023/09/11 05:19:37;;;;;;;;;23.67;23.67;;;;;24.69;100.00;100998.06;5066529;28;73573;-74
2023/09/11 05:22:03;;;;;;;;;27.00;24.67;;;;;24.65;100.00;101000.00;5073717;27;69916;-74
2023/09/11 05:24:28;;;;;;;;;26.67;24.33;;;;;24.66;100.00;101007.19;5064324;28;45449;-74
2023/09/11 05:26:54;;;;;;;;;24.67;22.67;;;;;24.62;100.00;101016.34;5070023;27;45460;-74
2023/09/11 05:29:19;;;;;;;;;24.00;22.33;;;;;24.61;100.00;101022.72;5067510;28;46427;-75
2023/09/11 05:31:44;;;;;;;;;29.33;22.67;;;;;24.62;100.00;101016.34;5062990;28;68502;-74
2023/09/11 05:34:10;;;;;;;;;22.33;22.33;;;;;24.62;100.00;101010.09;5056935;28;62939;-73
2023/09/11 05:36:35;;;;;;;;;22.33;21.33;;;;;24.61;100.00;101013.72;5068113;28;45584;-73
2023/09/11 05:39:00;;;;;;;;;22.67;21.33;;;;;24.62;100.00;101012.78;5072499;27;69617;-73
2023/09/11 05:41:26;;;;;;;;;25.67;22.00;;;;;24.59;100.00;101018.31;5060785;27;68499;-75
2023/09/11 05:43:52;;;;;;;;;23.33;20.67;;;;;24.60;100.00;101014.66;5065827;28;45556;-73
2023/09/11 05:46:17;;;;;;;;;25.67;24.33;;;;;24.63;100.00;101023.50;5066354;27;45430;-74
2023/09/11 05:48:43;;;;;;;;;23.33;21.33;;;;;24.65;100.00;101027.00;5073103;28;45452;-74
2023/09/11 05:51:08;;;;;;;;;28.00;25.00;;;;;24.65;100.00;101029.72;5061320;28;45497;-73
2023/09/11 05:53:34;;;;;;;;;21.67;21.33;;;;;24.66;100.00;101022.47;5071767;28;46089;-74
2023/09/11 05:56:00;;;;;;;;;25.00;23.67;;;;;24.71;100.00;101021.31;5071109;27;45465;-75
2023/09/11 05:58:25;;;;;;;;;27.00;24.00;;;;;24.76;100.00;101021.13;5065215;28;46035;-74
2023/09/11 06:00:51;;;;;;;;;25.00;25.00;;;;;24.76;100.00;101022.00;5072033;28;67720;-73
2023/09/11 06:03:17;;;;;;;;;24.67;23.33;;;;;24.79;100.00;101026.41;5065522;28;45502;-74
2023/09/11 06:05:43;;;;;;;;;26.67;23.67;;;;;24.80;100.00;101022.75;5070659;28;45421;-74
2023/09/11 06:08:08;;;;;;;;;27.33;23.67;;;;;24.85;100.00;101025.25;5069394;27;47318;-75
2023/09/11 06:10:33;;;;;;;;;22.33;22.33;;;;;24.86;100.00;101030.56;5066915;28;45513;-74
2023/09/11 06:12:59;;;;;;;;;28.00;22.00;;;;;24.92;100.00;101030.28;5071115;27;45452;-73
2023/09/11 06:15:25;;;;;;;;;24.00;23.00;;;;;24.91;100.00;101031.25;5062310;27;45564;-74
2023/09/11 06:17:50;;;;;;;;;31.33;23.67;;;;;24.92;100.00;101029.41;5062218;28;47075;-75
2023/09/11 06:20:17;;;;;;;;;23.33;19.67;;;;;24.93;100.00;101044.66;5072194;27;45528;-73
2023/09/11 06:22:43;;;;;;;;;28.00;25.00;;;;;24.94;100.00;101041.03;5066278;28;45619;-73
2023/09/11 06:25:08;;;;;;;;;26.33;24.67;;;;;24.91;100.00;101038.47;5064993;27;45415;-75
2023/09/11 06:27:34;;;;;;;;;23.67;23.67;;;;;24.90;100.00;101040.28;5063662;28;72431;-73
2023/09/11 06:30:00;;;;;;;;;26.67;23.67;;;;;24.91;100.00;101042.03;5059280;28;45515;-75
2023/09/11 06:32:25;;;;;;;;;30.00;23.33;;;;;24.92;100.00;101037.53;5065743;28;45418;-75
2023/09/11 06:34:51;;;;;;;;;26.33;25.00;;;;;24.95;100.00;101032.88;5062744;28;45457;-74
2023/09/11 06:37:16;;;;;;;;;30.67;25.33;;;;;24.96;100.00;101034.63;5061781;27;46395;-75
2023/09/11 06:39:42;;;;;;;;;22.00;19.00;;;;;25.00;100.00;101038.06;5067298;28;45350;-74
2023/09/11 06:42:07;;;;;;;;;27.00;24.67;;;;;25.03;100.00;101035.19;5069126;27;46480;-75
2023/09/11 06:44:33;;;;;;;;;27.67;23.33;;;;;25.02;100.00;101039.72;5067555;28;45550;-75
2023/09/11 06:46:58;;;;;;;;;27.67;26.67;;;;;25.03;100.00;101036.06;5077744;27;45582;-74
2023/09/11 06:49:24;;;;;;;;;27.67;23.33;;;;;25.03;100.00;101038.78;5070543;27;45422;-74
2023/09/11 06:51:49;;;;;;;;;27.67;24.67;;;;;25.05;100.00;101036.91;5071004;28;45472;-75
2023/09/11 06:54:14;;;;;;;;;26.00;25.00;;;;;25.07;100.00;101044.97;5069969;27;62381;-74
2023/09/11 06:56:40;;;;;;;;;26.33;24.33;;;;;25.10;100.00;101039.44;5070690;27;45631;-74
2023/09/11 06:59:05;;;;;;;;;30.33;28.00;;;;;25.17;100.00;101042.72;5071485;28;45419;-76
2023/09/11 07:01:31;;;;;;;;;28.67;27.00;;;;;25.23;100.00;101040.59;5064024;27;47113;-78
2023/09/11 07:03:57;;;;;;;;;22.00;20.33;;;;;25.28;100.00;101048.50;5061794;28;45617;-75
2023/09/11 07:06:22;;;;;;;;;22.00;21.33;;;;;25.43;100.00;101046.91;5072321;27;46143;-74
2023/09/11 07:08:48;;;;;;;;;29.00;25.67;;;;;25.59;100.00;101048.81;5060380;27;70774;-74
2023/09/11 07:11:16;;;;;;;;;24.00;24.00;;;;;25.68;100.00;101054.75;5064044;28;64505;-75
2023/09/11 07:13:41;;;;;;;;;23.33;23.33;;;;;25.71;100.00;101041.91;5061942;28;45474;-73
2023/09/11 07:16:06;;;;;;;;;24.33;23.67;;;;;25.75;100.00;101043.56;5060615;28;46396;-73
2023/09/11 07:18:32;;;;;;;;;24.67;23.67;;;;;25.76;100.00;101050.72;5068909;27;60551;-74
2023/09/11 07:20:57;;;;;;;;;29.00;25.33;;;;;25.80;100.00;101051.47;5076221;28;45301;-75
2023/09/11 07:23:24;;;;;;;;;24.33;24.33;;;;;25.79;100.00;101053.28;5069576;27;45402;-76
2023/09/11 07:25:55;;;;;;;;;26.33;24.00;;;;;25.82;100.00;101054.94;5066474;28;66617;-75
2023/09/11 07:28:24;;;;;;;;;27.67;25.67;;;;;25.81;100.00;101042.38;5072608;27;45433;-75
2023/09/11 07:30:49;;;;;;;;;26.33;23.33;;;;;25.82;100.00;101044.13;5070986;27;45512;-74
2023/09/11 07:33:15;;;;;;;;;22.67;22.67;;;;;25.79;100.00;101036.19;5073333;28;45512;-74
2023/09/11 07:35:40;;;;;;;;;24.33;22.67;;;;;25.81;100.00;101034.28;5065919;27;70367;-77
2023/09/11 07:38:06;;;;;;;;;24.33;21.33;;;;;25.84;100.00;101035.00;5068225;27;68313;-76
2023/09/11 07:40:31;;;;;;;;;23.33;20.67;;;;;25.89;100.00;101034.78;5068296;27;45523;-75
2023/09/11 07:42:57;;;;;;;;;25.00;20.33;;;;;25.94;100.00;101037.22;5064207;28;45637;-75
2023/09/11 07:45:22;;;;;;;;;21.67;20.33;;;;;25.93;100.00;101038.19;5067080;27;71209;-75
2023/09/11 07:47:47;;;;;;;;;26.67;24.67;;;;;25.99;100.00;101036.03;5067019;28;69410;-75
2023/09/11 07:50:13;;;;;;;;;22.67;19.67;;;;;26.00;100.00;101042.38;5071583;27;45488;-76
2023/09/11 07:52:38;;;;;;;;;21.67;18.00;;;;;26.03;100.00;101045.78;5070125;27;61459;-76
2023/09/11 07:55:04;;;;;;;;;17.67;17.67;;;;;26.11;100.00;101054.41;5061766;27;70742;-75
2023/09/11 07:57:30;;;;;;;;;23.67;20.33;;;;;26.17;100.00;101052.34;5064904;28;45401;-75
2023/09/11 07:59:56;;;;;;;;;22.67;20.00;;;;;26.34;100.00;101047.81;5064852;28;45472;-77
2023/09/11 08:02:21;;;;;;;;;19.67;18.67;;;;;26.37;100.00;101052.22;5073239;27;45700;-76
2023/09/11 08:04:47;;;;;;;;;26.33;19.00;;;;;26.42;100.00;101057.41;5068182;28;72305;-78
2023/09/11 08:07:12;;;;;;;;;21.67;17.00;;;;;26.43;100.00;101057.34;5067013;27;67845;-78
2023/09/11 08:09:37;;;;;;;;;20.00;18.67;;;;;26.48;100.00;101060.69;5071403;27;45529;-79
2023/09/11 08:12:03;;;;;;;;;24.00;18.00;;;;;26.57;100.00;101049.34;5188081;22;57276;-82
2023/09/11 08:14:28;;;;;;;;;18.33;17.00;;;;;26.56;100.00;101047.59;5075372;27;46645;-80
2023/09/11 08:16:54;;;;;;;;;18.00;17.00;;;;;26.58;100.00;101050.22;5066299;28;70278;-81
2023/09/11 08:19:19;;;;;;;;;20.00;17.00;;;;;26.64;100.00;101055.34;5071320;28;45366;-79
2023/09/11 08:21:45;;;;;;;;;18.00;15.00;;;;;26.66;100.00;101049.84;5067250;28;62127;-79
2023/09/11 08:24:11;;;;;;;;;16.33;16.33;;;;;26.71;100.00;101055.91;5075299;28;46554;-76
2023/09/11 08:26:38;;;;;;;;;17.67;15.33;;;;;26.80;100.00;101052.72;5071789;27;45523;-77
2023/09/11 08:29:03;;;;;;;;;19.67;18.33;;;;;26.89;100.00;101057.63;5068235;28;45456;-76
2023/09/11 08:31:29;;;;;;;;;21.33;19.00;;;;;26.98;100.00;101059.84;5071724;27;45360;-77
2023/09/11 08:33:55;;;;;;;;;16.67;16.67;;;;;27.08;100.00;101058.44;5066545;28;67436;-77
2023/09/11 08:36:20;;;;;;;;;18.33;16.33;;;;;27.25;100.00;101059.34;5065801;28;45585;-78
2023/09/11 08:38:47;;;;;;;;;14.67;14.33;;;;;27.38;100.00;101055.00;5055505;28;45481;-77
2023/09/11 08:41:13;;;;;;;;;19.33;17.33;;;;;27.58;100.00;101067.44;5066723;28;46739;-76
2023/09/11 08:43:39;;;;;;;;;16.00;13.00;;;;;27.74;100.00;101060.19;5074206;28;45425;-77
2023/09/11 08:46:07;;;;;;;;;16.00;14.67;;;;;27.85;100.00;101057.75;5068694;28;45469;-78
2023/09/11 08:48:33;;;;;;;;;23.00;16.67;;;;;27.89;100.00;101058.47;5066620;28;46312;-79
2023/09/11 08:51:06;;;;;;;;;13.00;12.00;;;;;27.94;100.00;101068.09;5072759;28;64824;-78
2023/09/11 08:53:32;;;;;;;;;14.33;13.00;;;;;27.98;100.00;101057.94;5068230;27;46670;-78
2023/09/11 08:55:58;;;;;;;;;17.00;13.67;;;;;28.00;100.00;101063.25;5067675;28;61775;-77
2023/09/11 08:58:24;;;;;;;;;13.67;10.67;;;;;28.01;100.00;101056.88;5070547;28;45275;-78
2023/09/11 09:00:49;;;;;;;;;13.00;11.33;;;;;28.09;100.00;101057.31;5067535;28;64516;-77
2023/09/11 09:03:15;;;;;;;;;17.33;13.00;;;;;28.17;100.00;101060.44;5072936;28;46356;-77
2023/09/11 09:05:41;;;;;;;;;13.33;12.00;;;;;28.21;100.00;101064.72;5067151;28;66635;-77
2023/09/11 09:08:07;;;;;;;;;10.67;10.67;;;;;28.26;100.00;101072.59;5068079;28;63830;-77
2023/09/11 09:10:32;;;;;;;;;10.00;10.00;;;;;28.33;100.00;101074.00;5071912;28;45630;-79
2023/09/11 09:12:58;;;;;;;;;12.67;10.33;;;;;28.41;100.00;101074.44;5072887;28;68407;-77
2023/09/11 09:15:24;;;;;;;;;13.67;9.67;;;;;28.48;100.00;101070.38;5073758;27;68049;-78
2023/09/11 09:17:50;;;;;;;;;11.67;11.00;;;;;28.55;100.00;101057.28;5073971;28;45584;-77
2023/09/11 09:20:17;;;;;;;;;16.67;12.00;;;;;28.62;100.00;101067.72;5072171;27;45562;-77
2023/09/11 09:22:51;;;;;;;;;13.00;11.00;;;;;28.70;100.00;101073.56;5067382;28;45690;-78
2023/09/11 09:25:17;;;;;;;;;13.00;10.33;;;;;28.72;100.00;101081.63;5071906;27;45504;-77
2023/09/11 09:27:42;;;;;;;;;14.00;11.00;;;;;28.78;100.00;101103.00;5075037;27;45518;-76
2023/09/11 09:30:27;;;;;;;;;11.67;11.00;;;;;28.73;100.00;101156.75;5074353;28;61369;-77
2023/09/11 09:32:53;;;;;;;;;14.00;12.67;;;;;28.68;100.00;101167.03;5074318;28;46542;-77
2023/09/11 09:35:25;;;;;;;;;18.00;15.67;;;;;28.53;100.00;101167.91;5074490;28;45338;-80
2023/09/11 09:37:56;;;;;;;;;16.67;16.67;;;;;28.45;100.00;101173.81;5071558;28;45560;-77
2023/09/11 09:40:36;;;;;;;;;16.00;13.00;;;;;28.37;100.00;101176.09;5074233;27;45514;-77
2023/09/11 09:43:03;;;;;;;;;17.67;13.33;;;;;28.25;100.00;101165.91;5068573;28;45667;-76
2023/09/11 09:45:38;;;;;;;;;14.67;13.00;;;;;28.24;100.00;101154.19;5071479;28;45368;-76
2023/09/11 09:48:15;;;;;;;;;11.33;11.33;;;;;28.15;100.00;101158.28;5074853;27;45400;-76
2023/09/11 09:50:58;;;;;;;;;18.00;15.00;;;;;28.09;100.00;101147.78;5074124;28;45664;-77
2023/09/11 09:53:25;;;;;;;;;15.67;13.00;;;;;28.07;100.00;101152.44;5073638;28;46956;-79
2023/09/11 09:55:50;;;;;;;;;14.00;13.33;;;;;28.05;100.00;101159.75;5070074;27;45325;-77
2023/09/11 09:58:19;;;;;;;;;8.00;8.00;;;;;28.00;100.00;101159.16;5072961;28;45706;-77
2023/09/11 10:00:45;;;;;;;;;17.33;13.00;;;;;27.96;100.00;101164.84;5071858;28;45472;-77
2023/09/11 10:03:11;;;;;;;;;13.00;11.00;;;;;27.89;100.00;101137.16;5070369;27;68618;-78
2023/09/11 10:05:40;;;;;;;;;15.00;13.00;;;;;27.90;100.00;101114.47;5073987;27;45484;-76
2023/09/11 10:08:05;;;;;;;;;11.00;9.33;;;;;28.03;100.00;101117.41;5071364;28;45463;-76
2023/09/11 10:10:31;;;;;;;;;16.67;13.67;;;;;28.18;100.00;101127.38;5071161;28;45526;-75
2023/09/11 10:13:13;;;;;;;;;16.00;13.67;;;;;28.36;100.00;101133.59;5072971;27;66292;-77
2023/09/11 10:15:41;;;;;;;;;11.33;9.67;;;;;28.47;100.00;101128.41;5070610;27;45438;-76
2023/09/11 10:18:10;;;;;;;;;15.33;12.33;;;;;28.65;100.00;101140.00;5071933;28;45864;-77
2023/09/11 10:20:35;;;;;;;;;15.67;11.00;;;;;28.74;100.00;101135.88;5074956;27;45487;-76
2023/09/11 10:23:03;;;;;;;;;12.67;10.00;;;;;28.78;100.00;101122.03;5075425;28;47302;-76
2023/09/11 10:25:29;;;;;;;;;11.67;10.33;;;;;28.84;100.00;101112.63;5076206;27;45524;-76
2023/09/11 10:28:02;;;;;;;;;14.33;13.00;;;;;28.95;100.00;101105.59;5075350;28;45737;-76
2023/09/11 10:30:34;;;;;;;;;13.00;9.33;;;;;29.03;100.00;101099.69;5076828;27;45589;-76
2023/09/11 10:33:00;;;;;;;;;11.00;11.00;;;;;29.11;100.00;101094.63;5068063;28;47800;-77
2023/09/11 10:35:33;;;;;;;;;10.33;8.67;;;;;29.21;100.00;101090.38;5070395;28;45499;-76
2023/09/11 10:37:59;;;;;;;;;9.00;8.67;;;;;29.27;100.00;101093.69;5062186;28;45372;-76
2023/09/11 10:40:27;;;;;;;;;10.00;9.00;;;;;29.31;100.00;101092.50;5064498;28;45908;-76
2023/09/11 10:42:53;;;;;;;;;7.33;7.33;;;;;29.34;100.00;101082.28;5072462;28;47488;-75
2023/09/11 10:45:26;;;;;;;;;8.00;7.67;;;;;29.38;100.00;101092.00;5065715;27;57843;-75
2023/09/11 10:47:51;;;;;;;;;9.00;8.33;;;;;29.42;100.00;101103.59;5063773;28;45549;-74
2023/09/11 10:50:17;;;;;;;;;8.33;8.33;;;;;29.47;100.00;101110.50;5072510;28;45571;-75
2023/09/11 10:52:44;;;;;;;;;10.33;8.33;;;;;29.49;100.00;101116.69;5075989;28;45668;-75
2023/09/11 10:55:10;;;;;;;;;13.00;8.67;;;;;29.47;100.00;101126.81;5066975;27;46541;-75
2023/09/11 10:57:35;;;;;;;;;8.00;8.00;;;;;29.44;100.00;101126.13;5073186;28;63907;-77
2023/09/11 11:00:01;;;;;;;;;5.33;5.33;;;;;29.45;100.00;101125.16;5073712;28;58124;-75